Time;durP1;ratioP1;P1;durP2;ratioP2;P2;SDS_P1;SDS_P2;PMS_P1;PMS_P2;Temp;Humidity;BMP_temperature;BMP_pressure;BME280_temperature;BME280_humidity;BME280_pressure;Samples;Min_cycle;Max_cycle;Signal;HPM_P1;HPM_P2
2022/05/21 00:00:20;;;;;;;13.60;3.75;;;19.70;99.90;;;;;;5017251;28;20026;-74
2022/05/21 00:02:47;;;;;;;17.77;4.20;;;19.90;99.90;;;;;;5013146;28;20034;-74
2022/05/21 00:05:14;;;;;;;17.80;3.90;;;19.90;99.90;;;;;;5015358;28;20022;-74
2022/05/21 00:07:39;;;;;;;14.82;4.07;;;19.90;99.90;;;;;;5015148;28;20121;-74
2022/05/21 00:10:07;;;;;;;11.20;3.60;;;19.90;99.90;;;;;;5015730;28;20509;-74
2022/05/21 00:12:33;;;;;;;10.65;3.33;;;19.80;99.90;;;;;;5015276;28;20097;-74
2022/05/21 00:14:59;;;;;;;8.68;3.50;;;19.80;99.90;;;;;;5014098;28;20033;-74
2022/05/21 00:17:25;;;;;;;13.48;3.90;;;19.60;99.90;;;;;;5015050;28;20026;-74
2022/05/21 00:19:50;;;;;;;13.32;3.97;;;19.60;99.90;;;;;;5015344;28;20040;-74
2022/05/21 00:22:16;;;;;;;12.80;4.35;;;19.60;99.90;;;;;;5014738;28;20030;-74
2022/05/21 00:24:42;;;;;;;8.30;3.78;;;19.50;99.90;;;;;;5014858;28;20042;-74
2022/05/21 00:27:08;;;;;;;15.52;4.10;;;19.50;99.90;;;;;;5015463;28;20030;-74
2022/05/21 00:29:34;;;;;;;10.52;3.92;;;19.50;99.90;;;;;;5014292;28;20475;-74
2022/05/21 00:32:00;;;;;;;12.88;4.75;;;19.50;99.90;;;;;;5015118;28;20025;-74
2022/05/21 00:34:26;;;;;;;15.43;4.43;;;19.50;99.90;;;;;;5014982;28;20458;-74
2022/05/21 00:36:52;;;;;;;12.88;3.92;;;19.50;99.90;;;;;;5014135;28;20030;-75
2022/05/21 00:39:17;;;;;;;12.45;4.53;;;19.60;99.90;;;;;;5015184;28;20069;-74
2022/05/21 00:41:44;;;;;;;14.43;4.43;;;19.30;99.90;;;;;;5015004;28;20033;-74
2022/05/21 00:44:09;;;;;;;9.15;4.07;;;19.40;99.90;;;;;;5014624;28;20022;-74
2022/05/21 00:46:41;;;;;;;18.42;5.05;;;19.40;99.90;;;;;;5014926;28;20018;-75
2022/05/21 00:49:25;;;;;;;14.40;4.13;;;19.30;99.90;;;;;;5013650;28;20033;-74
2022/05/21 00:52:00;;;;;;;14.48;4.20;;;19.30;99.90;;;;;;5014530;28;20446;-74
2022/05/21 00:54:32;;;;;;;14.45;3.75;;;19.30;99.90;;;;;;5014618;28;20048;-74
2022/05/21 00:57:04;;;;;;;13.52;4.60;;;19.20;99.90;;;;;;5014552;28;20080;-74
2022/05/21 00:59:48;;;;;;;14.80;4.00;;;19.20;99.90;;;;;;5013983;28;20033;-74
2022/05/21 01:02:27;;;;;;;9.07;4.18;;;19.20;99.90;;;;;;5001646;28;20463;-74
2022/05/21 01:04:56;;;;;;;13.30;3.72;;;19.20;99.90;;;;;;5003207;28;20474;-74
2022/05/21 01:07:25;;;;;;;11.75;5.00;;;19.20;99.90;;;;;;5015387;28;20078;-74
2022/05/21 01:09:56;;;;;;;16.48;4.22;;;19.10;99.90;;;;;;5034741;28;20021;-74
2022/05/21 01:12:25;;;;;;;16.07;4.70;;;19.10;99.90;;;;;;5022248;28;20033;-74
2022/05/21 01:14:55;;;;;;;18.10;4.80;;;19.10;99.90;;;;;;5013094;28;20260;-74
2022/05/21 01:17:21;;;;;;;12.15;4.32;;;19.10;99.90;;;;;;5014229;28;20036;-74
2022/05/21 01:20:05;;;;;;;8.32;3.53;;;19.10;99.90;;;;;;5013807;28;20030;-74
2022/05/21 01:22:42;;;;;;;14.85;4.47;;;19.10;99.90;;;;;;5013248;28;20398;-75
2022/05/21 01:25:08;;;;;;;11.65;4.18;;;19.10;99.90;;;;;;5013586;28;20022;-74
2022/05/21 01:27:34;;;;;;;10.68;4.07;;;19.10;99.90;;;;;;5015533;28;20022;-74
2022/05/21 01:30:04;;;;;;;9.48;3.88;;;19.10;99.90;;;;;;5014077;28;20561;-74
2022/05/21 01:32:30;;;;;;;11.32;4.20;;;19.00;99.90;;;;;;5013950;28;20026;-74
2022/05/21 01:34:56;;;;;;;10.88;3.97;;;19.00;99.90;;;;;;5013827;28;20052;-75
2022/05/21 01:37:22;;;;;;;13.82;4.70;;;19.00;99.90;;;;;;5014184;28;20022;-74
2022/05/21 01:39:48;;;;;;;11.55;4.00;;;19.00;99.90;;;;;;5013345;28;20041;-74
2022/05/21 01:42:14;;;;;;;10.15;3.85;;;19.00;99.90;;;;;;5013175;28;20029;-74
2022/05/21 01:44:40;;;;;;;13.23;4.70;;;18.90;99.90;;;;;;5013544;28;20486;-74
2022/05/21 01:47:07;;;;;;;12.20;4.65;;;19.00;99.90;;;;;;5014284;28;20026;-75
2022/05/21 01:49:33;;;;;;;14.57;3.92;;;18.90;99.90;;;;;;5013139;28;20026;-74
2022/05/21 01:52:00;;;;;;;14.07;4.13;;;18.90;99.90;;;;;;5013606;28;20505;-74
2022/05/21 01:54:26;;;;;;;15.65;4.63;;;18.90;99.90;;;;;;5013586;28;20022;-74
2022/05/21 01:56:51;;;;;;;14.95;4.47;;;18.80;99.90;;;;;;5013914;28;20549;-74
2022/05/21 01:59:17;;;;;;;10.15;4.47;;;18.80;99.90;;;;;;5013270;28;20025;-74
2022/05/21 02:01:42;;;;;;;13.45;4.38;;;18.80;99.90;;;;;;5012878;28;20092;-74
2022/05/21 02:04:08;;;;;;;14.52;4.50;;;18.80;99.90;;;;;;5013123;28;20022;-74
2022/05/21 02:06:34;;;;;;;14.20;4.20;;;18.90;99.90;;;;;;5012727;28;20072;-74
2022/05/21 02:09:00;;;;;;;11.45;3.90;;;18.80;99.90;;;;;;5012852;28;20481;-74
2022/05/21 02:11:26;;;;;;;13.68;4.13;;;18.80;99.90;;;;;;5013245;28;20029;-74
2022/05/21 02:13:51;;;;;;;13.32;4.25;;;18.80;99.90;;;;;;5013001;28;20129;-74
2022/05/21 02:16:17;;;;;;;14.55;4.53;;;18.80;99.90;;;;;;5025667;28;20105;-74
2022/05/21 02:18:43;;;;;;;13.25;4.57;;;18.80;99.90;;;;;;5012672;28;20338;-74
2022/05/21 02:21:08;;;;;;;15.98;4.20;;;18.80;99.90;;;;;;5012865;28;20033;-74
2022/05/21 02:23:34;;;;;;;14.57;4.88;;;18.70;99.90;;;;;;5013246;28;20456;-74
2022/05/21 02:26:01;;;;;;;12.57;4.68;;;18.80;99.90;;;;;;5012642;28;20494;-74
2022/05/21 02:28:27;;;;;;;16.35;3.88;;;18.70;99.90;;;;;;5013160;28;20075;-74
2022/05/21 02:30:53;;;;;;;10.25;4.40;;;18.70;99.90;;;;;;5012531;28;20108;-74
2022/05/21 02:33:18;;;;;;;12.98;4.22;;;18.70;99.90;;;;;;5012659;28;20426;-74
2022/05/21 02:35:44;;;;;;;13.80;4.22;;;18.60;99.90;;;;;;5012492;28;20041;-74
2022/05/21 02:40:55;;;;;;;16.13;4.93;;;18.60;99.90;;;;;;5012703;28;20083;-74
2022/05/21 02:43:21;;;;;;;17.98;4.63;;;18.50;99.90;;;;;;5012756;28;20022;-74
2022/05/21 02:45:47;;;;;;;20.70;4.30;;;18.50;99.90;;;;;;5012389;28;20522;-74
2022/05/21 02:48:13;;;;;;;8.82;3.83;;;18.60;99.90;;;;;;5026408;28;20021;-74
2022/05/21 02:50:38;;;;;;;10.45;3.95;;;18.50;99.90;;;;;;5026854;28;20076;-74
2022/05/21 02:53:07;;;;;;;11.18;4.75;;;18.50;99.90;;;;;;5012210;28;20030;-74
2022/05/21 02:55:33;;;;;;;11.60;4.25;;;18.50;99.90;;;;;;5012432;28;20115;-74
2022/05/21 02:57:59;;;;;;;17.20;4.85;;;18.40;99.90;;;;;;5012206;28;20034;-74
2022/05/21 03:00:28;;;;;;;13.38;4.97;;;18.40;99.90;;;;;;5025277;28;20040;-74
2022/05/21 03:02:55;;;;;;;9.68;4.32;;;18.40;99.90;;;;;;5031879;28;20021;-74
2022/05/21 03:05:21;;;;;;;9.48;4.05;;;18.40;99.90;;;;;;5024653;28;20022;-74
2022/05/21 03:07:49;;;;;;;7.15;4.30;;;18.40;99.90;;;;;;5010766;28;20473;-74
2022/05/21 03:10:21;;;;;;;9.30;4.47;;;18.40;99.90;;;;;;5012544;28;20029;-74
2022/05/21 03:12:48;;;;;;;;;;;18.30;99.90;;;;;;5012679;28;20117;-74
2022/05/21 03:15:14;;;;;;;12.10;4.20;;;18.30;99.90;;;;;;5012313;28;19912;-74
2022/05/21 03:17:40;;;;;;;12.73;4.53;;;18.40;99.90;;;;;;5012103;28;20034;-74
2022/05/21 03:20:06;;;;;;;12.60;4.70;;;18.40;99.90;;;;;;5011977;28;20029;-74
2022/05/21 03:22:32;;;;;;;9.05;3.92;;;18.40;99.90;;;;;;5010543;28;20034;-74
2022/05/21 03:24:58;;;;;;;11.23;4.38;;;18.20;99.90;;;;;;5010455;28;20392;-74
2022/05/21 03:27:24;;;;;;;10.40;4.72;;;18.20;99.90;;;;;;5012247;28;20026;-74
2022/05/21 03:29:50;;;;;;;8.10;4.28;;;18.20;99.90;;;;;;5011962;28;20045;-74
2022/05/21 03:32:16;;;;;;;15.10;4.68;;;18.00;99.90;;;;;;5011693;28;20490;-74
2022/05/21 03:34:41;;;;;;;8.93;4.28;;;18.00;99.90;;;;;;5012542;28;20041;-75
2022/05/21 03:37:07;;;;;;;13.45;4.28;;;18.00;99.90;;;;;;5011831;28;20034;-74
2022/05/21 03:39:33;;;;;;;11.07;4.72;;;18.00;99.90;;;;;;5016097;28;20037;-74
2022/05/21 03:41:58;;;;;;;16.63;4.57;;;18.00;99.90;;;;;;5015879;28;20053;-74
2022/05/21 03:44:25;;;;;;;16.77;4.63;;;17.90;99.90;;;;;;5016067;28;20022;-74
2022/05/21 03:46:51;;;;;;;12.35;4.20;;;17.90;99.90;;;;;;5015721;28;20309;-75
2022/05/21 03:49:18;;;;;;;16.35;5.30;;;17.90;99.90;;;;;;5015989;28;20022;-74
2022/05/21 03:51:44;;;;;;;19.33;5.28;;;17.90;99.90;;;;;;5015473;28;20468;-74
2022/05/21 03:54:10;;;;;;;21.67;5.43;;;17.90;99.90;;;;;;5015704;28;20030;-74
2022/05/21 03:56:36;;;;;;;13.77;5.15;;;17.90;99.90;;;;;;5015572;28;20030;-74
2022/05/21 03:59:02;;;;;;;11.32;4.57;;;17.80;99.90;;;;;;5015487;28;20036;-74
2022/05/21 04:01:28;;;;;;;17.33;5.45;;;17.90;99.90;;;;;;5015291;28;20029;-74
2022/05/21 04:03:56;;;;;;;16.52;5.07;;;17.70;99.90;;;;;;5015881;28;20080;-75
2022/05/21 04:06:22;;;;;;;17.65;5.43;;;17.80;99.90;;;;;;5015407;28;20269;-74
2022/05/21 04:08:49;;;;;;;16.40;5.10;;;17.70;99.90;;;;;;5015608;28;20038;-74
2022/05/21 04:11:15;;;;;;;14.07;5.40;;;17.70;99.90;;;;;;5015692;28;20089;-74
2022/05/21 04:13:41;;;;;;;11.43;4.72;;;17.70;99.90;;;;;;5014671;28;20041;-74
2022/05/21 04:16:07;;;;;;;11.38;4.57;;;17.70;99.90;;;;;;5015036;28;20033;-74
2022/05/21 04:18:32;;;;;;;14.77;5.57;;;17.70;99.90;;;;;;5015426;28;20080;-74
2022/05/21 04:20:58;;;;;;;14.88;5.18;;;17.80;99.90;;;;;;5015226;28;20032;-74
2022/05/21 04:23:23;;;;;;;13.25;5.40;;;17.80;99.90;;;;;;5014957;28;20045;-74
2022/05/21 04:25:49;;;;;;;16.50;5.22;;;17.90;99.90;;;;;;5015560;28;20055;-74
2022/05/21 04:28:15;;;;;;;10.65;4.95;;;17.80;99.90;;;;;;5014998;28;20029;-74
2022/05/21 04:30:41;;;;;;;14.75;5.57;;;17.90;99.90;;;;;;5013377;28;20025;-74
2022/05/21 04:33:07;;;;;;;17.73;6.00;;;17.80;99.90;;;;;;5015041;28;20034;-74
2022/05/21 04:38:17;;;;;;;14.85;5.70;;;17.70;99.90;;;;;;5032269;28;20086;-74
2022/05/21 04:40:43;;;;;;;16.70;5.88;;;17.70;99.90;;;;;;5021787;28;20477;-74
2022/05/21 04:43:09;;;;;;;17.00;6.55;;;17.60;99.90;;;;;;5015104;28;20473;-74
2022/05/21 04:45:35;;;;;;;13.07;6.18;;;17.50;99.90;;;;;;5012987;28;20030;-74
2022/05/21 04:48:06;;;;;;;16.77;6.85;;;17.60;99.90;;;;;;5014729;28;20036;-74
2022/05/21 04:50:35;;;;;;;13.40;5.65;;;17.60;99.90;;;;;;5015351;28;20029;-74
2022/05/21 04:53:00;;;;;;;18.33;6.22;;;17.50;99.90;;;;;;5014629;28;20037;-75
2022/05/21 04:55:26;;;;;;;15.35;6.05;;;17.50;99.90;;;;;;5014666;28;20030;-74
2022/05/21 04:57:51;;;;;;;13.90;6.25;;;17.60;99.90;;;;;;5014637;28;20505;-74
2022/05/21 05:00:17;;;;;;;13.18;5.43;;;17.70;99.90;;;;;;5013999;28;20049;-74
2022/05/21 05:02:43;;;;;;;17.60;6.80;;;17.60;99.90;;;;;;5031072;28;20033;-74
2022/05/21 05:05:09;;;;;;;19.80;7.07;;;17.50;99.90;;;;;;5028264;28;20025;-74
2022/05/21 05:07:36;;;;;;;16.38;6.63;;;17.50;99.90;;;;;;5014331;28;20030;-74
2022/05/21 05:10:03;;;;;;;18.20;7.25;;;17.40;99.90;;;;;;5014559;28;20029;-74
2022/05/21 05:12:29;;;;;;;17.30;6.53;;;17.40;99.90;;;;;;5013811;28;20022;-74
2022/05/21 05:14:54;;;;;;;15.30;6.72;;;17.40;99.90;;;;;;5014363;28;20485;-74
2022/05/21 05:17:20;;;;;;;13.77;6.65;;;17.50;99.90;;;;;;5014114;28;20033;-74
2022/05/21 05:19:47;;;;;;;15.55;6.18;;;17.50;99.90;;;;;;5014451;28;20033;-74
2022/05/21 05:22:13;;;;;;;19.70;7.05;;;17.40;99.90;;;;;;5021987;28;20029;-75
2022/05/21 05:24:39;;;;;;;15.57;6.95;;;17.40;99.90;;;;;;5033627;28;20045;-74
2022/05/21 05:27:06;;;;;;;15.70;7.00;;;17.40;99.90;;;;;;5033460;28;20029;-74
2022/05/21 05:29:32;;;;;;;16.85;6.18;;;17.50;99.90;;;;;;5019231;28;20516;-74
2022/05/21 05:31:57;;;;;;;15.52;7.53;;;17.60;99.90;;;;;;5014417;28;20030;-74
2022/05/21 05:34:23;;;;;;;14.77;6.43;;;17.50;99.90;;;;;;5013816;28;20481;-75
2022/05/21 05:36:49;;;;;;;14.10;6.35;;;17.60;99.90;;;;;;5013999;28;20034;-74
2022/05/21 05:39:16;;;;;;;12.57;5.90;;;17.60;99.90;;;;;;5013846;28;20428;-74
2022/05/21 05:41:42;;;;;;;17.52;6.18;;;17.70;99.90;;;;;;5013745;28;20489;-74
2022/05/21 05:44:07;;;;;;;12.32;5.95;;;17.80;99.90;;;;;;5013195;28;20033;-74
2022/05/21 05:46:33;;;;;;;14.73;6.28;;;17.90;99.90;;;;;;5031212;28;20037;-74
2022/05/21 05:48:59;;;;;;;15.88;5.72;;;18.00;99.90;;;;;;5033517;28;20021;-74
2022/05/21 05:51:26;;;;;;;14.10;5.63;;;18.00;99.90;;;;;;5033643;28;20021;-75
2022/05/21 05:53:53;;;;;;;13.25;5.82;;;18.10;99.90;;;;;;5033474;28;20023;-74
2022/05/21 05:56:19;;;;;;;16.27;6.13;;;18.20;99.90;;;;;;5033004;28;20056;-74
2022/05/21 06:01:30;;;;;;;17.50;5.60;;;18.10;99.90;;;;;;5012665;28;20088;-75
2022/05/21 06:03:55;;;;;;;14.73;5.70;;;18.10;99.90;;;;;;5017934;28;20021;-74
2022/05/21 06:06:22;;;;;;;18.65;6.38;;;18.20;99.90;;;;;;5016915;28;20030;-74
2022/05/21 06:08:48;;;;;;;18.55;6.07;;;18.30;99.90;;;;;;5013452;28;20033;-74
2022/05/21 06:11:15;;;;;;;10.70;5.72;;;18.30;99.90;;;;;;5021170;28;20493;-74
2022/05/21 06:13:41;;;;;;;15.27;5.78;;;18.40;99.90;;;;;;5030161;28;20108;-75
2022/05/21 06:16:07;;;;;;;18.45;5.70;;;18.40;99.90;;;;;;5012937;28;20026;-74
2022/05/21 06:18:33;;;;;;;14.32;5.38;;;18.50;99.90;;;;;;5011707;28;20033;-75
2022/05/21 06:21:03;;;;;;;19.83;5.85;;;18.50;99.90;;;;;;5013621;28;20516;-74
2022/05/21 06:23:31;;;;;;;14.80;5.50;;;18.70;99.90;;;;;;5012457;28;20046;-74
2022/05/21 06:25:59;;;;;;;11.10;4.80;;;18.70;99.90;;;;;;5012860;28;20026;-74
2022/05/21 06:28:25;;;;;;;12.35;5.50;;;18.80;99.90;;;;;;5012599;28;20025;-74
2022/05/21 06:30:51;;;;;;;13.45;5.15;;;18.80;99.90;;;;;;5012357;28;20034;-74
2022/05/21 06:33:26;;;;;;;15.82;5.35;;;18.90;99.90;;;;;;5013490;28;20037;-74
2022/05/21 06:36:10;;;;;;;19.25;5.43;;;19.00;99.90;;;;;;5013100;28;20018;-74
2022/05/21 06:38:37;;;;;;;12.45;5.05;;;19.00;99.90;;;;;;5012621;28;20069;-74
2022/05/21 06:41:03;;;;;;;10.05;4.93;;;19.10;99.90;;;;;;5012239;28;20366;-74
2022/05/21 06:43:29;;;;;;;10.02;4.57;;;19.20;99.90;;;;;;5013191;28;20057;-74
2022/05/21 06:45:54;;;;;;;7.30;4.13;;;19.30;99.90;;;;;;5031879;28;20079;-74
2022/05/21 06:48:20;;;;;;;12.77;4.90;;;19.30;99.90;;;;;;5012449;28;20049;-74
2022/05/21 06:50:46;;;;;;;13.80;4.93;;;19.50;99.90;;;;;;5020175;28;20389;-74
2022/05/21 06:53:12;;;;;;;11.95;3.85;;;19.60;99.90;;;;;;5016821;28;20025;-75
2022/05/21 06:55:39;;;;;;;9.48;3.70;;;19.70;99.90;;;;;;5007331;28;20523;-74
2022/05/21 06:58:05;;;;;;;9.23;3.70;;;19.80;99.90;;;;;;5012469;28;20026;-75
2022/05/21 07:00:31;;;;;;;11.30;3.42;;;19.80;99.90;;;;;;5016371;28;20137;-77
2022/05/21 07:02:56;;;;;;;12.50;4.47;;;19.90;99.90;;;;;;5026585;28;20112;-75
2022/05/21 07:08:19;;;;;;;9.55;4.32;;;20.10;99.90;;;;;;5021806;28;20109;-75
2022/05/21 07:10:46;;;;;;;8.10;3.95;;;20.20;99.90;;;;;;5019976;28;20385;-76
2022/05/21 07:13:12;;;;;;;9.38;3.53;;;20.30;99.90;;;;;;5018733;28;20481;-74
2022/05/21 07:15:39;;;;;;;7.40;3.60;;;20.40;99.90;;;;;;5023491;28;20041;-74
2022/05/21 07:18:04;;;;;;;9.20;3.47;;;20.50;99.90;;;;;;5014024;28;20014;-74
2022/05/21 07:20:30;;;;;;;10.90;3.75;;;20.50;99.90;;;;;;5017185;28;20103;-74
2022/05/21 07:22:57;;;;;;;10.38;3.35;;;20.60;99.90;;;;;;5019341;28;20502;-73
2022/05/21 07:25:25;;;;;;;8.48;4.22;;;20.70;99.90;;;;;;5012464;28;20069;-72
2022/05/21 07:27:52;;;;;;;8.60;3.20;;;20.90;99.90;;;;;;5012096;28;20011;-72
2022/05/21 07:30:18;;;;;;;7.80;3.03;;;20.90;99.90;;;;;;5013288;28;20033;-78
2022/05/21 07:32:44;;;;;;;7.78;3.30;;;21.00;99.90;;;;;;5016202;28;20500;-74
2022/05/21 07:35:15;;;;;;;9.38;3.40;;;21.20;99.90;;;;;;5021755;28;20026;-74
2022/05/21 07:37:41;;;;;;;5.10;2.35;;;21.30;99.90;;;;;;5021832;28;20018;-76
2022/05/21 07:40:08;;;;;;;10.95;3.30;;;21.40;99.90;;;;;;5013432;28;20384;-76
2022/05/21 07:42:35;;;;;;;9.93;3.35;;;21.40;99.90;;;;;;5023885;28;20022;-72
2022/05/21 07:45:00;;;;;;;8.60;2.72;;;21.40;99.90;;;;;;5019115;28;20385;-73
2022/05/21 07:47:26;;;;;;;6.20;2.65;;;21.50;99.90;;;;;;5018786;28;20070;-73
2022/05/21 07:49:56;;;;;;;5.80;2.67;;;21.60;99.90;;;;;;5019643;28;20026;-73
2022/05/21 07:52:22;;;;;;;4.47;2.47;;;21.70;99.90;;;;;;5020590;28;20017;-74
2022/05/21 07:54:48;;;;;;;9.27;2.80;;;21.90;99.90;;;;;;5017765;28;20117;-74
2022/05/21 07:57:14;;;;;;;12.18;3.47;;;21.90;99.90;;;;;;5021812;28;20444;-74
2022/05/21 07:59:39;;;;;;;7.22;3.22;;;22.00;99.90;;;;;;5018466;28;20026;-74
2022/05/21 08:02:06;;;;;;;8.63;2.70;;;22.00;99.90;;;;;;5019643;28;20022;-74
2022/05/21 08:04:34;;;;;;;5.53;2.85;;;22.20;99.90;;;;;;5019792;28;20140;-73
2022/05/21 08:07:00;;;;;;;7.75;2.90;;;22.30;99.90;;;;;;5018516;28;20092;-73
2022/05/21 08:09:26;;;;;;;7.07;2.65;;;22.50;99.90;;;;;;5020748;28;20025;-73
2022/05/21 08:11:51;;;;;;;9.32;2.80;;;22.60;99.90;;;;;;5018338;28;20013;-73
2022/05/21 08:14:18;;;;;;;7.05;2.60;;;22.60;99.90;;;;;;5021110;28;20099;-73
2022/05/21 08:16:45;;;;;;;7.53;2.25;;;22.80;99.90;;;;;;5016062;28;20033;-72
2022/05/21 08:19:12;;;;;;;6.68;3.33;;;23.10;99.90;;;;;;5020417;28;20018;-72
2022/05/21 08:21:38;;;;;;;5.30;2.88;;;23.40;99.90;;;;;;5013792;28;20452;-76
2022/05/21 08:26:57;;;;;;;13.23;3.05;;;23.60;99.90;;;;;;5018771;28;20091;-72
2022/05/21 08:29:29;;;;;;;10.32;3.05;;;23.80;99.10;;;;;;5025355;28;20089;-72
2022/05/21 08:31:55;;;;;;;8.60;2.70;;;24.10;98.30;;;;;;5028671;28;20021;-72
2022/05/21 08:34:22;;;;;;;9.75;3.33;;;24.20;97.80;;;;;;5017207;28;20492;-72
2022/05/21 08:36:48;;;;;;;10.13;3.75;;;24.50;97.50;;;;;;5027852;28;20064;-72
2022/05/21 08:39:18;;;;;;;7.30;2.90;;;24.70;97.30;;;;;;5022095;28;20489;-72
2022/05/21 08:41:56;;;;;;;7.80;3.10;;;24.80;96.00;;;;;;5014107;28;20025;-73
2022/05/21 08:44:44;;;;;;;8.43;2.65;;;25.30;96.50;;;;;;5010714;28;20018;-73
2022/05/21 08:47:30;;;;;;;9.90;3.35;;;25.40;95.70;;;;;;5023723;28;20017;-73
2022/05/21 08:50:09;;;;;;;9.35;3.20;;;25.90;94.80;;;;;;5016886;28;20018;-73
2022/05/21 08:52:42;;;;;;;8.68;3.20;;;25.50;94.60;;;;;;5013749;28;20378;-73
2022/05/21 08:55:11;;;;;;;10.55;3.38;;;25.50;94.20;;;;;;5025336;28;20109;-72
2022/05/21 08:58:12;;;;;;;5.22;2.67;;;25.80;94.00;;;;;;5024257;28;20029;-73
2022/05/21 09:00:43;;;;;;;9.77;3.20;;;26.10;93.20;;;;;;5014216;28;20508;-73
2022/05/21 09:03:11;;;;;;;13.50;2.70;;;26.00;92.10;;;;;;5026948;28;20053;-73
2022/05/21 09:05:41;;;;;;;7.68;2.60;;;25.50;92.60;;;;;;5016233;28;20409;-72
2022/05/21 09:08:15;;;;;;;9.63;2.80;;;26.20;92.70;;;;;;5020162;28;20109;-72
2022/05/21 09:11:03;;;;;;;8.82;2.97;;;26.20;91.20;;;;;;5013816;28;20032;-73
2022/05/21 09:13:44;;;;;;;12.80;3.17;;;26.30;90.70;;;;;;5022485;28;20022;-72
2022/05/21 09:19:05;;;;;;;8.00;2.75;;;26.80;88.20;;;;;;5016227;28;20515;-73
2022/05/21 09:21:33;;;;;;;7.50;2.58;;;26.80;88.80;;;;;;5020423;28;20108;-73
2022/05/21 09:24:01;;;;;;;6.57;2.22;;;27.30;89.20;;;;;;5016815;28;20084;-73
2022/05/21 09:26:44;;;;;;;8.68;2.28;;;27.20;86.60;;;;;;5028541;28;20049;-73
2022/05/21 09:29:34;;;;;;;7.43;2.90;;;27.00;86.40;;;;;;5010979;28;20026;-73
2022/05/21 09:32:17;;;;;;;8.15;2.45;;;26.90;85.30;;;;;;5017638;28;20484;-73
2022/05/21 09:34:43;;;;;;;16.20;2.90;;;27.70;84.70;;;;;;5010047;28;20022;-73
2022/05/21 09:37:16;;;;;;;7.90;2.60;;;27.60;83.90;;;;;;5025844;28;20388;-73
2022/05/21 09:39:43;;;;;;;10.10;2.28;;;27.60;84.00;;;;;;5025388;28;20018;-73
2022/05/21 09:45:21;;;;;;;8.38;2.65;;;27.70;84.40;;;;;;5016019;28;20022;-73
2022/05/21 09:45:27;;;;;;;9.43;2.53;;;28.00;82.10;;;;;;5016643;28;20037;-73
2022/05/21 09:48:03;;;;;;;7.35;2.63;;;27.80;83.50;;;;;;5029867;28;20063;-72
2022/05/21 09:50:30;;;;;;;8.68;2.40;;;27.90;81.80;;;;;;5013924;28;20026;-72
2022/05/21 09:52:55;;;;;;;7.05;2.22;;;27.70;81.00;;;;;;5013504;28;20371;-72
2022/05/21 09:55:27;;;;;;;13.18;2.78;;;28.30;78.20;;;;;;5012932;28;20028;-72
2022/05/21 09:57:57;;;;;;;9.60;3.15;;;27.80;79.50;;;;;;5013944;28;20065;-72
2022/05/21 10:00:31;;;;;;;10.55;2.45;;;27.70;79.00;;;;;;5027825;28;20034;-72
2022/05/21 10:03:00;;;;;;;9.63;2.33;;;27.90;79.80;;;;;;5030553;28;20037;-72
2022/05/21 10:05:50;;;;;;;7.78;2.40;;;28.10;77.60;;;;;;5014950;28;20022;-72
2022/05/21 10:11:38;;;;;;;8.48;2.90;;;28.70;77.30;;;;;;5010121;28;20064;-72
2022/05/21 10:14:08;;;;;;;9.52;2.97;;;28.40;75.60;;;;;;5030963;28;20029;-73
2022/05/21 10:16:43;;;;;;;17.15;2.47;;;28.30;76.00;;;;;;5023120;28;20029;-73
2022/05/21 10:19:25;;;;;;;8.27;2.47;;;28.50;74.30;;;;;;5032142;28;20063;-74
2022/05/21 10:22:09;;;;;;;7.30;2.60;;;28.90;74.90;;;;;;5006070;28;20034;-81
2022/05/21 10:24:56;;;;;;;13.27;2.30;;;28.10;75.80;;;;;;5007780;28;20081;-76
2022/05/21 10:27:52;;;;;;;6.32;2.50;;;27.90;75.50;;;;;;5007939;28;20105;-74
2022/05/21 10:30:39;;;;;;;5.68;2.08;;;28.40;75.00;;;;;;5008936;28;20018;-73
2022/05/21 10:33:05;;;;;;;9.45;2.63;;;28.70;74.00;;;;;;5012144;28;20018;-74
2022/05/21 10:35:49;;;;;;;10.95;2.85;;;28.20;73.50;;;;;;5011902;28;20037;-74
2022/05/21 10:38:40;;;;;;;15.02;2.75;;;28.20;74.10;;;;;;5011917;28;20054;-73
2022/05/21 10:41:21;;;;;;;17.27;3.13;;;28.30;74.20;;;;;;5016478;28;20022;-74
2022/05/21 10:44:12;;;;;;;12.43;2.63;;;28.90;72.90;;;;;;5009372;28;20316;-75
2022/05/21 10:46:41;;;;;;;10.10;2.83;;;28.70;72.60;;;;;;5011056;28;20057;-75
2022/05/21 10:49:18;;;;;;;7.45;2.80;;;28.50;73.80;;;;;;5011640;28;20483;-75
2022/05/21 10:52:00;;;;;;;8.95;2.60;;;28.70;73.10;;;;;;5013283;28;20036;-73
2022/05/21 10:54:26;;;;;;;;;;;28.90;71.50;;;;;;5023329;28;20414;-74
2022/05/21 10:57:04;;;;;;;7.53;2.60;;;28.90;72.30;;;;;;5011728;28;19960;-74
2022/05/21 10:59:37;;;;;;;10.38;3.13;;;28.90;72.70;;;;;;5014435;28;20029;-74
2022/05/21 11:02:33;;;;;;;6.82;2.58;;;29.00;71.90;;;;;;5011739;28;20037;-74
2022/05/21 11:05:24;;;;;;;8.13;3.13;;;29.10;71.20;;;;;;5016356;28;20524;-74
2022/05/21 11:08:17;;;;;;;6.35;2.72;;;29.30;70.70;;;;;;5011135;28;20026;-74
2022/05/21 11:10:55;;;;;;;9.98;2.80;;;29.30;70.30;;;;;;5010964;28;20026;-73
2022/05/21 11:13:36;;;;;;;11.27;2.95;;;28.80;71.70;;;;;;5011455;28;20029;-73
2022/05/21 11:16:14;;;;;;;;;;;28.50;71.00;;;;;;5011715;28;20021;-73
2022/05/21 11:19:00;;;;;;;12.35;3.40;;;28.60;71.20;;;;;;5011324;28;19905;-74
2022/05/21 11:21:45;;;;;;;154.77;9.82;;;29.20;71.60;;;;;;5011373;28;20026;-73
2022/05/21 11:24:14;;;;;;;6.20;2.70;;;29.60;70.40;;;;;;5008559;28;20505;-76
2022/05/21 11:26:46;;;;;;;8.73;2.70;;;29.60;70.20;;;;;;5029276;28;20527;-78
2022/05/21 11:29:39;;;;;;;14.15;2.72;;;29.20;69.70;;;;;;5018683;28;20014;-85
2022/05/21 11:38:03;;;;;;;9.27;2.28;;;29.50;69.60;;;;;;4995586;28;20513;-72
2022/05/21 11:43:58;;;;;;;9.80;2.55;;;30.00;68.80;;;;;;4989503;28;20151;-73
2022/05/21 11:46:38;;;;;;;18.88;2.63;;;29.50;69.00;;;;;;4989800;28;20030;-72
2022/05/21 11:49:43;;;;;;;12.73;2.33;;;29.60;68.20;;;;;;5004409;28;20030;-72
2022/05/21 11:52:27;;;;;;;11.48;2.67;;;30.00;67.50;;;;;;4893325;29;20550;-72
2022/05/21 11:54:59;;;;;;;11.43;2.90;;;29.90;67.80;;;;;;4893204;29;20468;-73
2022/05/21 11:57:36;;;;;;;10.38;2.90;;;30.00;68.30;;;;;;4885863;29;20037;-73
2022/05/21 12:00:16;;;;;;;10.68;2.85;;;30.20;67.40;;;;;;4885225;29;20067;-73
2022/05/21 12:02:53;;;;;;;5.55;2.83;;;30.40;67.00;;;;;;4880313;29;20116;-73
2022/05/21 12:05:34;;;;;;;8.77;2.90;;;30.40;67.10;;;;;;4887903;29;20031;-73
2022/05/21 12:08:16;;;;;;;10.07;2.55;;;30.30;66.40;;;;;;4898360;29;20036;-73
2022/05/21 12:11:04;;;;;;;7.18;2.58;;;30.00;67.40;;;;;;4912344;29;20125;-74
2022/05/21 12:13:35;;;;;;;11.13;3.28;;;30.50;66.80;;;;;;4909173;29;20040;-73
2022/05/21 12:16:22;;;;;;;9.07;2.40;;;30.40;66.20;;;;;;4906605;29;20779;-73
2022/05/21 12:18:54;;;;;;;7.65;2.70;;;30.60;66.70;;;;;;4909155;29;20048;-74
2022/05/21 12:21:36;;;;;;;8.02;2.50;;;30.20;66.50;;;;;;4910397;29;20028;-73
2022/05/21 12:24:26;;;;;;;10.75;2.92;;;30.30;66.60;;;;;;4909962;29;20044;-73
2022/05/21 12:27:21;;;;;;;12.82;3.15;;;30.50;67.50;;;;;;5004328;28;20058;-73
2022/05/21 12:29:49;;;;;;;11.43;2.42;;;31.10;64.80;;;;;;5015762;28;20054;-73
2022/05/21 12:32:23;;;;;;;13.73;2.53;;;30.70;66.20;;;;;;4996057;28;20030;-73
2022/05/21 12:35:20;;;;;;;14.00;2.78;;;30.30;66.00;;;;;;5006319;28;20470;-72
2022/05/21 12:37:49;;;;;;;29.48;3.70;;;30.40;66.00;;;;;;5015648;28;20113;-73
2022/05/21 12:40:30;;;;;;;10.70;2.85;;;30.20;66.30;;;;;;5016083;28;20018;-73
2022/05/21 12:43:03;;;;;;;12.30;2.80;;;30.10;66.50;;;;;;5016455;28;20041;-73
2022/05/21 12:45:40;;;;;;;12.70;3.28;;;30.00;66.30;;;;;;5023619;28;20477;-73
2022/05/21 12:48:35;;;;;;;9.20;2.70;;;29.70;67.00;;;;;;5032797;28;20021;-73
2022/05/21 12:51:10;;;;;;;6.30;2.80;;;29.40;67.50;;;;;;5004787;28;20022;-73
2022/05/21 12:53:45;;;;;;;8.63;2.83;;;29.40;69.00;;;;;;5017192;28;20446;-73
2022/05/21 12:56:19;;;;;;;12.95;3.10;;;29.50;68.00;;;;;;5016902;28;20061;-72
2022/05/21 12:58:45;;;;;;;11.38;3.28;;;29.70;68.60;;;;;;5031904;28;20057;-73
2022/05/21 13:01:31;;;;;;;8.93;3.17;;;30.20;66.90;;;;;;5033608;28;20123;-73
2022/05/21 13:03:59;;;;;;;9.30;2.80;;;30.20;67.90;;;;;;5028109;28;20041;-73
2022/05/21 13:06:31;;;;;;;12.57;2.95;;;30.20;67.00;;;;;;5014764;28;20026;-73
2022/05/21 13:09:00;;;;;;;8.88;3.00;;;30.30;67.30;;;;;;5014645;28;20231;-73
2022/05/21 13:11:40;;;;;;;6.88;2.70;;;30.80;66.70;;;;;;5013927;28;20034;-73
2022/05/21 13:14:10;;;;;;;11.75;3.22;;;30.10;66.20;;;;;;5014900;28;20029;-73
2022/05/21 13:16:49;;;;;;;11.20;3.53;;;29.60;66.90;;;;;;5014763;28;20030;-73
2022/05/21 13:19:18;;;;;;;13.15;3.10;;;29.50;67.10;;;;;;5014005;28;20030;-73
2022/05/21 13:21:56;;;;;;;11.50;3.05;;;29.30;67.70;;;;;;5014464;28;20105;-73
2022/05/21 13:24:45;;;;;;;8.38;3.00;;;29.90;67.30;;;;;;5030192;28;20081;-73
2022/05/21 13:27:20;;;;;;;13.02;3.45;;;30.00;67.10;;;;;;5022326;28;20030;-73